createdAt,value
2018-04-30T00:00:08.478Z,7.12
2018-04-30T00:02:36.055Z,7.09
2018-04-30T00:05:03.762Z,7.04
2018-04-30T00:07:31.291Z,7.02
2018-04-30T00:09:59.964Z,6.97
2018-04-30T00:12:28.623Z,6.94
2018-04-30T00:14:56.699Z,6.89
2018-04-30T00:17:25.169Z,6.85
2018-04-30T00:19:52.947Z,6.81
2018-04-30T00:22:20.483Z,6.79
2018-04-30T00:24:48.051Z,6.75
2018-04-30T00:27:15.571Z,6.72
2018-04-30T00:29:44.094Z,6.68
2018-04-30T00:32:11.642Z,6.58
2018-04-30T00:34:39.234Z,6.52
2018-04-30T00:37:07.519Z,6.49
2018-04-30T00:39:35.719Z,6.46
2018-04-30T00:42:03.266Z,6.39
2018-04-30T00:44:31.699Z,6.36
2018-04-30T00:47:00.082Z,6.32
2018-04-30T00:49:27.773Z,6.26
2018-04-30T00:51:55.343Z,6.19
2018-04-30T00:54:36.043Z,6.16
2018-04-30T00:57:03.595Z,6.12
2018-04-30T00:59:31.124Z,6.06
2018-04-30T01:01:58.777Z,6.02
2018-04-30T01:04:26.444Z,5.98
2018-04-30T01:06:53.994Z,5.94
2018-04-30T01:09:22.225Z,5.89
2018-04-30T01:11:49.774Z,5.84
2018-04-30T01:14:18.043Z,5.79
2018-04-30T01:16:46.351Z,5.77
2018-04-30T01:19:13.888Z,5.70
2018-04-30T01:21:41.435Z,5.69
2018-04-30T01:24:09.102Z,5.67
2018-04-30T01:26:36.635Z,5.62
2018-04-30T01:29:04.295Z,5.60
2018-04-30T01:31:32.252Z,5.59
2018-04-30T01:33:59.847Z,5.58
2018-04-30T01:36:28.182Z,5.58
2018-04-30T01:38:55.716Z,5.57
2018-04-30T01:41:23.290Z,5.57
2018-04-30T01:43:51.249Z,5.55
2018-04-30T01:46:18.795Z,5.51
2018-04-30T01:48:46.979Z,5.49
2018-04-30T01:51:14.532Z,5.47
2018-04-30T01:53:42.849Z,5.49
2018-04-30T01:56:10.383Z,5.49
2018-04-30T01:58:37.998Z,5.50
2018-04-30T02:01:05.571Z,5.50
2018-04-30T02:03:33.098Z,5.49
2018-04-30T02:06:00.640Z,5.48
2018-04-30T02:08:28.498Z,5.46
2018-04-30T02:10:56.866Z,5.44
2018-04-30T02:13:25.479Z,5.42
2018-04-30T02:15:54.747Z,5.38
2018-04-30T02:18:22.988Z,5.35
2018-04-30T02:20:51.124Z,5.35
2018-04-30T02:23:18.683Z,5.33
2018-04-30T02:25:46.228Z,5.33
2018-04-30T02:28:13.839Z,5.32
2018-04-30T03:39:42.699Z,5.90
2018-04-30T03:42:10.234Z,5.97
2018-04-30T03:44:37.767Z,6.05
2018-04-30T03:47:06.057Z,6.13
2018-04-30T03:49:33.754Z,6.18
2018-04-30T03:52:01.287Z,6.19
2018-04-30T03:54:28.861Z,6.23
2018-04-30T03:56:56.422Z,6.26
2018-04-30T03:59:23.957Z,6.30
2018-04-30T04:02:03.219Z,6.36
2018-04-30T04:04:42.542Z,6.44
2018-04-30T04:07:10.755Z,6.51
2018-04-30T04:09:38.309Z,6.55
2018-04-30T04:12:05.876Z,6.57
2018-04-30T04:14:34.383Z,6.59
2018-04-30T04:17:02.907Z,6.62
2018-04-30T04:19:31.011Z,6.64
2018-04-30T04:21:58.547Z,6.67
2018-04-30T04:24:26.660Z,6.68
2018-04-30T04:26:54.888Z,6.64
2018-04-30T04:29:22.898Z,6.56
2018-04-30T04:31:52.186Z,6.51
2018-04-30T04:34:20.608Z,6.41
2018-04-30T04:36:48.474Z,6.37
2018-04-30T04:39:16.012Z,6.37
2018-04-30T04:41:43.576Z,6.40
2018-04-30T04:44:11.138Z,6.45
2018-04-30T04:46:38.691Z,6.47
2018-04-30T04:49:06.894Z,6.53
2018-04-30T04:51:34.434Z,6.55
2018-04-30T04:54:01.985Z,6.57
2018-04-30T04:56:29.646Z,6.63
2018-04-30T04:58:57.208Z,6.70
2018-04-30T05:01:24.768Z,6.74
2018-04-30T05:03:52.682Z,6.74
2018-04-30T05:06:20.339Z,6.79
2018-04-30T05:08:48.081Z,6.85
2018-04-30T05:11:15.648Z,6.88
2018-04-30T05:13:43.802Z,6.87
2018-04-30T05:16:11.351Z,6.87
2018-04-30T05:18:39.318Z,6.86
2018-04-30T05:21:07.602Z,6.92
2018-04-30T05:23:35.791Z,7.01
2018-04-30T05:26:03.343Z,7.10
2018-04-30T05:28:32.130Z,7.15
2018-04-30T05:31:00.011Z,7.21
2018-04-30T05:33:28.179Z,7.26
2018-04-30T05:35:55.726Z,7.28
2018-04-30T05:38:23.276Z,7.28
2018-04-30T05:40:50.966Z,7.32
2018-04-30T05:43:18.807Z,7.39
2018-04-30T05:45:46.399Z,7.44
2018-04-30T05:48:14.859Z,7.47
2018-04-30T05:50:43.083Z,7.56
2018-04-30T05:53:10.651Z,7.60
2018-04-30T05:55:38.188Z,7.63
2018-04-30T05:58:05.767Z,7.71
2018-04-30T06:00:33.356Z,7.73
2018-04-30T06:03:00.958Z,7.79
2018-04-30T06:05:28.530Z,7.85
2018-04-30T06:07:56.864Z,7.92
2018-04-30T06:10:24.408Z,7.95
2018-04-30T06:12:52.119Z,8.02
2018-04-30T06:15:20.489Z,8.12
2018-04-30T06:17:49.178Z,8.19
2018-04-30T06:20:17.671Z,8.28
2018-04-30T06:22:45.877Z,8.34
2018-04-30T06:25:13.904Z,8.43
2018-04-30T06:27:41.450Z,8.51
2018-04-30T06:30:09.886Z,8.55
2018-04-30T06:32:37.416Z,8.62
2018-04-30T06:35:04.954Z,8.66
2018-04-30T06:37:32.522Z,8.72
2018-04-30T06:40:00.072Z,8.74
2018-04-30T06:42:27.608Z,8.77
2018-04-30T06:44:55.187Z,8.75
2018-04-30T06:47:23.356Z,8.78
2018-04-30T06:49:51.017Z,8.77
2018-04-30T06:52:18.678Z,8.82
2018-04-30T06:54:46.262Z,8.89
2018-04-30T06:57:13.797Z,9.04
2018-04-30T06:59:41.363Z,9.14
2018-04-30T07:02:08.951Z,9.18
2018-04-30T07:04:36.483Z,9.21
2018-04-30T07:07:05.164Z,9.29
2018-04-30T07:09:32.792Z,9.28
2018-04-30T07:12:00.279Z,9.31
2018-04-30T07:14:28.691Z,9.41
2018-04-30T07:16:56.751Z,9.46
2018-04-30T07:19:24.843Z,9.51
2018-04-30T07:21:52.936Z,9.53
2018-04-30T07:24:20.482Z,9.61
2018-04-30T07:26:48.349Z,9.70
2018-04-30T07:29:15.903Z,9.73
2018-04-30T07:31:43.864Z,9.81
2018-04-30T07:34:11.414Z,9.85
2018-04-30T07:36:39.471Z,9.83
2018-04-30T07:39:07.135Z,9.86
2018-04-30T07:41:34.616Z,9.84
2018-04-30T07:44:02.187Z,9.82
2018-04-30T07:46:29.714Z,9.85
2018-04-30T07:48:57.969Z,9.87
2018-04-30T07:51:25.500Z,9.94
2018-04-30T07:53:53.059Z,9.99
2018-04-30T07:56:20.615Z,10.06
2018-04-30T07:58:48.424Z,10.18
2018-04-30T08:01:16.932Z,10.30
2018-04-30T08:03:45.322Z,10.43
2018-04-30T08:06:13.415Z,10.50
2018-04-30T08:08:40.943Z,10.49
2018-04-30T08:11:08.475Z,10.52
2018-04-30T08:13:36.602Z,10.55
2018-04-30T08:16:04.727Z,10.57
2018-04-30T08:18:32.858Z,10.61
2018-04-30T08:21:01.177Z,10.66
2018-04-30T08:23:28.705Z,10.69
2018-04-30T08:25:56.277Z,10.75
2018-04-30T08:28:23.851Z,10.82
2018-04-30T08:30:53.181Z,10.87
2018-04-30T08:33:20.713Z,10.94
2018-04-30T08:35:48.783Z,10.99
2018-04-30T08:38:16.350Z,11.07
2018-04-30T08:40:43.899Z,11.09
2018-04-30T08:43:11.440Z,11.13
2018-04-30T08:45:39.000Z,11.16
2018-04-30T08:48:08.333Z,11.19
2018-04-30T08:50:35.854Z,11.17
2018-04-30T08:53:03.411Z,11.14
2018-04-30T08:55:30.973Z,11.23
2018-04-30T08:57:58.680Z,11.40
2018-04-30T09:00:26.352Z,11.46
2018-04-30T09:02:54.527Z,11.64
2018-04-30T09:05:22.742Z,11.76
2018-04-30T09:07:50.951Z,11.95
2018-04-30T09:10:18.637Z,12.17
2018-04-30T09:12:46.167Z,12.34
2018-04-30T09:15:14.521Z,12.36
2018-04-30T09:17:42.634Z,12.20
2018-04-30T09:20:10.919Z,12.14
2018-04-30T09:22:39.357Z,12.14
2018-04-30T09:25:06.904Z,12.22
2018-04-30T09:27:34.447Z,12.30
2018-04-30T09:30:02.028Z,12.39
2018-04-30T09:32:30.251Z,12.43
2018-04-30T09:34:57.850Z,12.45
2018-04-30T09:37:25.574Z,12.49
2018-04-30T09:39:53.139Z,12.49
2018-04-30T09:42:20.666Z,12.47
2018-04-30T09:44:48.315Z,12.42
2018-04-30T09:47:16.403Z,12.46
2018-04-30T09:49:43.944Z,12.46
2018-04-30T09:52:11.502Z,12.50
2018-04-30T09:54:39.059Z,12.48
2018-04-30T09:57:06.588Z,12.61
2018-04-30T09:59:34.120Z,12.71
2018-04-30T10:02:01.688Z,12.91
2018-04-30T10:04:29.240Z,12.97
2018-04-30T10:06:58.387Z,13.01
2018-04-30T10:09:25.963Z,13.19
2018-04-30T10:11:54.201Z,13.25
2018-04-30T10:14:22.642Z,13.25
2018-04-30T10:16:50.799Z,13.31
2018-04-30T10:19:18.703Z,13.38
2018-04-30T10:21:46.713Z,13.41
2018-04-30T10:24:15.032Z,13.39
2018-04-30T10:26:42.613Z,13.42
2018-04-30T10:29:10.258Z,13.60
2018-04-30T10:31:38.419Z,13.84
2018-04-30T10:34:05.947Z,13.95
2018-04-30T10:36:33.509Z,14.06
2018-04-30T10:39:01.103Z,14.26
2018-04-30T10:41:28.630Z,14.34
2018-04-30T10:43:56.288Z,14.24
2018-04-30T10:46:23.942Z,14.23
2018-04-30T10:48:52.216Z,14.20
2018-04-30T10:51:20.978Z,14.15
2018-04-30T10:53:48.782Z,14.15
2018-04-30T10:56:16.427Z,14.22
2018-04-30T10:58:44.929Z,14.33
2018-04-30T11:01:12.467Z,14.40
2018-04-30T11:03:40.887Z,14.53
2018-04-30T11:06:09.252Z,14.73
2018-04-30T11:08:37.740Z,14.84
2018-04-30T11:11:05.771Z,14.86
2018-04-30T11:13:33.872Z,15.04
2018-04-30T11:16:01.851Z,15.05
2018-04-30T11:18:30.216Z,15.04
2018-04-30T11:20:58.918Z,15.03
2018-04-30T11:23:26.445Z,15.07
2018-04-30T11:25:53.987Z,14.97
2018-04-30T11:28:21.557Z,14.88
2018-04-30T11:30:50.073Z,14.78
2018-04-30T11:33:17.782Z,14.73
2018-04-30T11:35:45.347Z,14.64
2018-04-30T11:38:12.926Z,14.58
2018-04-30T11:40:40.470Z,14.58
2018-04-30T11:43:08.979Z,14.66
2018-04-30T11:45:36.598Z,14.61
2018-04-30T11:48:05.215Z,14.57
2018-04-30T11:50:32.764Z,14.51
2018-04-30T11:53:00.314Z,14.52
2018-04-30T11:55:27.949Z,14.60
2018-04-30T11:57:55.460Z,14.55
2018-04-30T12:00:23.013Z,14.55
2018-04-30T12:02:51.007Z,14.53
2018-04-30T12:05:18.670Z,14.64
2018-04-30T12:07:47.389Z,14.84
2018-04-30T12:10:15.606Z,14.92
2018-04-30T12:12:43.574Z,14.84
2018-04-30T12:15:12.001Z,14.81
2018-04-30T12:17:40.337Z,14.80
2018-04-30T12:20:08.743Z,14.74
2018-04-30T12:22:36.686Z,14.75
2018-04-30T12:25:04.232Z,14.72
2018-04-30T12:27:31.814Z,14.79
2018-04-30T12:29:59.470Z,14.91
2018-04-30T12:32:27.823Z,15.09
2018-04-30T12:34:55.368Z,15.20
2018-04-30T12:37:22.971Z,15.12
2018-04-30T12:39:50.711Z,15.05
2018-04-30T12:42:18.638Z,14.98
2018-04-30T12:44:46.250Z,15.02
2018-04-30T12:47:14.225Z,15.00
2018-04-30T12:49:41.846Z,15.11
2018-04-30T12:52:09.987Z,15.37
2018-04-30T12:54:37.583Z,15.66
2018-04-30T12:57:05.132Z,15.69
2018-04-30T12:59:32.724Z,15.87
2018-04-30T13:02:00.424Z,15.91
2018-04-30T13:04:28.595Z,15.96
2018-04-30T13:06:56.741Z,16.04
2018-04-30T13:09:24.819Z,16.13
2018-04-30T13:11:52.792Z,16.23
2018-04-30T13:14:21.159Z,16.18
2018-04-30T13:16:50.218Z,16.10
2018-04-30T13:19:17.852Z,15.98
2018-04-30T13:21:46.242Z,15.85
2018-04-30T13:24:13.797Z,15.82
2018-04-30T13:26:41.358Z,15.83
2018-04-30T13:29:09.725Z,15.89
2018-04-30T13:31:38.140Z,15.97
2018-04-30T13:34:05.666Z,15.88
2018-04-30T13:36:33.227Z,15.77
2018-04-30T13:39:00.802Z,15.71
2018-04-30T13:41:28.341Z,15.66
2018-04-30T13:43:55.877Z,15.61
2018-04-30T13:46:23.427Z,15.44
2018-04-30T13:48:51.931Z,15.29
2018-04-30T13:51:19.633Z,15.11
2018-04-30T13:53:47.182Z,14.84
2018-04-30T13:56:14.850Z,14.69
2018-04-30T13:58:42.397Z,14.72
2018-04-30T14:01:09.923Z,14.77
2018-04-30T14:03:37.939Z,14.75
2018-04-30T14:06:06.295Z,14.71
2018-04-30T14:08:33.829Z,14.66
2018-04-30T14:11:02.109Z,14.47
2018-04-30T14:13:30.330Z,14.33
2018-04-30T14:15:58.243Z,14.32
2018-04-30T14:18:26.338Z,14.49
2018-04-30T14:20:54.205Z,14.50
2018-04-30T14:23:21.826Z,14.45
2018-04-30T14:25:49.615Z,14.40
2018-04-30T14:28:17.167Z,14.26
2018-04-30T14:30:45.275Z,14.20
2018-04-30T14:33:12.834Z,14.19
2018-04-30T14:35:41.301Z,14.31
2018-04-30T14:38:08.840Z,14.24
2018-04-30T14:40:36.384Z,14.12
2018-04-30T14:43:04.060Z,14.11
2018-04-30T14:45:32.105Z,14.09
2018-04-30T14:48:00.326Z,14.00
2018-04-30T14:50:28.703Z,14.04
2018-04-30T14:52:56.239Z,14.03
2018-04-30T14:55:23.818Z,13.98
2018-04-30T14:57:51.460Z,13.85
2018-04-30T15:00:19.266Z,13.70
2018-04-30T15:02:46.793Z,13.54
2018-04-30T15:05:14.394Z,13.42
2018-04-30T15:07:42.513Z,13.33
2018-04-30T15:10:10.042Z,13.26
2018-04-30T15:12:38.100Z,13.21
2018-04-30T15:15:06.214Z,13.18
2018-04-30T15:17:34.426Z,13.16
2018-04-30T15:20:02.590Z,13.13
2018-04-30T15:22:30.135Z,13.11
2018-04-30T15:24:57.662Z,13.05
2018-04-30T15:27:25.329Z,12.89
2018-04-30T15:29:53.818Z,12.81
2018-04-30T15:32:21.971Z,12.64
2018-04-30T15:34:49.604Z,12.52
2018-04-30T15:37:17.194Z,12.37
2018-04-30T15:39:44.918Z,12.23
2018-04-30T15:42:12.488Z,12.10
2018-04-30T15:44:40.134Z,11.98
2018-04-30T15:47:08.336Z,11.86
2018-04-30T15:49:36.710Z,11.69
2018-04-30T15:52:04.232Z,11.56
2018-04-30T15:54:31.782Z,11.45
2018-04-30T15:56:59.872Z,11.28
2018-04-30T15:59:27.426Z,11.15
2018-04-30T16:01:54.948Z,11.07
2018-04-30T16:04:22.628Z,11.00
2018-04-30T16:06:50.920Z,10.93
2018-04-30T16:09:18.574Z,10.85
2018-04-30T16:11:46.735Z,10.75
2018-04-30T16:14:15.105Z,10.66
2018-04-30T16:16:43.123Z,10.54
2018-04-30T16:19:11.079Z,10.45
2018-04-30T16:21:39.458Z,10.38
2018-04-30T16:24:06.994Z,10.31
2018-04-30T16:26:34.514Z,10.24
2018-04-30T16:29:02.078Z,10.17
2018-04-30T16:31:30.064Z,10.10
2018-04-30T16:33:57.612Z,10.01
2018-04-30T16:36:25.171Z,9.92
2018-04-30T16:38:52.795Z,9.81
2018-04-30T16:41:20.380Z,9.74
2018-04-30T16:43:48.167Z,9.59
2018-04-30T16:46:16.181Z,9.50
2018-04-30T16:48:44.381Z,9.41
2018-04-30T16:51:11.942Z,9.35
2018-04-30T16:53:39.532Z,9.30
2018-04-30T16:56:07.062Z,9.22
2018-04-30T16:58:34.648Z,9.14
2018-04-30T17:01:02.159Z,9.08
2018-04-30T17:03:29.962Z,9.07
2018-04-30T17:05:57.979Z,9.07
2018-04-30T17:08:25.650Z,9.03
2018-04-30T17:10:53.188Z,8.94
2018-04-30T17:13:21.618Z,8.85
2018-04-30T17:15:49.259Z,8.77
2018-04-30T17:18:17.364Z,8.75
2018-04-30T17:20:45.626Z,8.73
2018-04-30T17:23:13.167Z,8.69
2018-04-30T17:25:40.695Z,8.65
2018-04-30T17:28:08.254Z,8.63
2018-04-30T17:30:36.861Z,8.61
2018-04-30T17:33:04.397Z,8.62
2018-04-30T17:35:31.914Z,8.62
2018-04-30T17:37:59.466Z,8.61
2018-04-30T17:40:26.991Z,8.61
2018-04-30T17:42:55.316Z,8.62
2018-04-30T17:45:23.555Z,8.64
2018-04-30T17:47:51.772Z,8.67
2018-04-30T17:50:19.556Z,8.68
2018-04-30T17:52:47.074Z,8.67
2018-04-30T17:55:14.643Z,8.67
2018-04-30T17:57:42.859Z,8.67
2018-04-30T18:00:10.444Z,8.66
2018-04-30T18:02:37.983Z,8.70
2018-04-30T18:05:05.527Z,8.71
2018-04-30T18:07:33.607Z,8.73
2018-04-30T18:10:01.139Z,8.76
2018-04-30T18:12:29.354Z,8.74
2018-04-30T18:14:57.542Z,8.72
2018-04-30T18:17:25.666Z,8.73
2018-04-30T18:19:54.315Z,8.77
2018-04-30T18:22:21.941Z,8.78
2018-04-30T18:24:49.574Z,8.77
2018-04-30T18:27:17.142Z,8.77
2018-04-30T18:29:44.893Z,8.76
2018-04-30T18:32:13.171Z,8.77
2018-04-30T18:34:40.691Z,8.73
2018-04-30T18:37:08.217Z,8.72
2018-04-30T18:39:35.784Z,8.74
2018-04-30T18:42:04.067Z,8.74
2018-04-30T18:44:31.638Z,8.74
2018-04-30T18:47:00.128Z,8.75
2018-04-30T18:49:27.647Z,8.74
2018-04-30T18:51:55.168Z,8.74
2018-04-30T18:54:22.771Z,8.76
2018-04-30T18:56:50.287Z,8.79
2018-04-30T18:59:19.342Z,8.77
2018-04-30T19:01:46.917Z,8.79
2018-04-30T19:04:14.458Z,8.80
2018-04-30T19:06:43.084Z,8.80
2018-04-30T19:09:10.708Z,8.83
2018-04-30T19:11:38.183Z,8.85
2018-04-30T19:14:06.343Z,8.85
2018-04-30T19:16:33.888Z,8.84
2018-04-30T19:19:02.209Z,8.82
2018-04-30T19:21:30.028Z,8.82
2018-04-30T19:23:57.554Z,8.77
2018-04-30T19:26:25.107Z,8.70
2018-04-30T19:28:52.719Z,8.58
2018-04-30T19:31:21.362Z,8.49
2018-04-30T19:33:48.971Z,8.38
2018-04-30T19:36:16.518Z,8.28
2018-04-30T19:38:44.805Z,8.20
2018-04-30T19:41:12.337Z,8.17
2018-04-30T19:43:39.854Z,8.14
2018-04-30T19:46:08.533Z,8.11
2018-04-30T19:48:36.910Z,8.12
2018-04-30T19:51:05.017Z,8.12
2018-04-30T19:53:32.543Z,8.13
2018-04-30T19:56:00.171Z,8.14
2018-04-30T19:58:27.734Z,8.14
2018-04-30T20:00:55.259Z,8.14
2018-04-30T20:03:22.791Z,8.15
2018-04-30T20:05:51.399Z,8.15
2018-04-30T20:08:18.994Z,8.17
2018-04-30T20:10:46.514Z,8.19
2018-04-30T20:13:15.016Z,8.18
2018-04-30T20:15:42.535Z,8.21
2018-04-30T20:18:10.800Z,8.22
2018-04-30T20:20:38.902Z,8.25
2018-04-30T20:23:06.502Z,8.28
2018-04-30T20:25:34.049Z,8.30
2018-04-30T20:28:01.611Z,8.29
2018-04-30T20:30:29.787Z,8.31
2018-04-30T20:32:57.319Z,8.31
2018-04-30T20:35:25.742Z,8.32
2018-04-30T20:37:53.275Z,8.33
2018-04-30T20:40:20.798Z,8.32
2018-04-30T20:42:48.543Z,8.29
2018-04-30T20:45:16.881Z,8.26
2018-04-30T20:47:44.902Z,8.23
2018-04-30T20:50:12.820Z,8.22
2018-04-30T20:52:40.383Z,8.20
2018-04-30T20:55:07.904Z,8.18
2018-04-30T20:57:35.461Z,8.16
2018-04-30T21:00:03.061Z,8.15
2018-04-30T21:02:30.563Z,8.13
2018-04-30T21:04:58.239Z,8.10
2018-04-30T21:07:26.772Z,8.09
2018-04-30T21:09:54.311Z,8.09
2018-04-30T21:12:21.883Z,8.07
2018-04-30T21:14:50.664Z,8.05
2018-04-30T21:17:19.000Z,8.06
2018-04-30T21:19:46.928Z,8.05
2018-04-30T21:22:14.477Z,8.01
2018-04-30T21:24:42.026Z,8.01
2018-04-30T21:27:09.594Z,8.02
2018-04-30T21:29:37.147Z,8.02
2018-04-30T21:32:05.265Z,8.02
2018-04-30T21:34:33.630Z,8.01
2018-04-30T21:37:02.510Z,7.99
2018-04-30T21:39:30.687Z,7.97
2018-04-30T21:41:58.227Z,7.97
2018-04-30T21:44:25.796Z,7.96
2018-04-30T21:46:54.192Z,7.97
2018-04-30T21:49:22.454Z,7.97
2018-04-30T21:51:50.016Z,7.97
2018-04-30T21:54:17.613Z,7.96
2018-04-30T21:56:45.211Z,7.94
2018-04-30T21:59:12.783Z,7.94
2018-04-30T22:01:40.335Z,7.92
2018-04-30T22:04:07.894Z,7.92
2018-04-30T22:06:36.359Z,7.88
2018-04-30T22:09:03.959Z,7.88
2018-04-30T22:11:31.478Z,7.85
2018-04-30T22:13:59.577Z,7.80
2018-04-30T22:16:27.145Z,7.79
2018-04-30T22:18:55.231Z,7.74
2018-04-30T22:21:23.286Z,7.69
2018-04-30T22:23:50.874Z,7.66
2018-04-30T22:26:18.705Z,7.63
2018-04-30T22:28:47.096Z,7.61
2018-04-30T22:31:15.226Z,7.58
2018-04-30T22:33:42.780Z,7.56
2018-04-30T22:36:10.311Z,7.55
2018-04-30T22:38:37.868Z,7.50
2018-04-30T22:41:05.383Z,7.45
2018-04-30T22:43:33.194Z,7.43
2018-04-30T22:46:01.763Z,7.40
2018-04-30T22:48:30.174Z,7.35
2018-04-30T22:50:57.695Z,7.32
2018-04-30T22:53:25.219Z,7.32
2018-04-30T22:55:52.838Z,7.29
2018-04-30T22:58:20.371Z,7.29
2018-04-30T23:00:48.152Z,7.30
2018-04-30T23:03:16.336Z,7.29
2018-04-30T23:05:43.973Z,7.28
2018-04-30T23:08:12.215Z,7.28
2018-04-30T23:10:39.777Z,7.28
2018-04-30T23:13:08.285Z,7.28
2018-04-30T23:15:35.814Z,7.26
2018-04-30T23:18:04.228Z,7.28
2018-04-30T23:20:32.703Z,7.30
2018-04-30T23:23:00.361Z,7.29
2018-04-30T23:25:27.897Z,7.30
2018-04-30T23:27:56.851Z,7.31
2018-04-30T23:30:25.214Z,7.29
2018-04-30T23:32:52.738Z,7.28
2018-04-30T23:35:20.445Z,7.24
2018-04-30T23:37:48.116Z,7.24
2018-04-30T23:40:15.690Z,7.24
2018-04-30T23:42:43.231Z,7.22
2018-04-30T23:45:10.790Z,7.20
2018-04-30T23:47:39.087Z,7.17
2018-04-30T23:50:07.607Z,7.14
2018-04-30T23:52:35.676Z,7.12
2018-04-30T23:55:03.276Z,7.12
2018-04-30T23:57:30.808Z,7.10
2018-04-30T23:59:58.355Z,7.10
